Sprague, Connecticut
Current Conditions -  °F | °C
As of 3:52 PM on Thursday 23 Oct 2014 (Local Time) from KIJD Reporting Station
Overcast Overcast  
Wind Chill: 56°   Ceiling: 2000
Heat Index: 56°   Visibility: 10mi
Dew Point: 48°   Wind: 14mph
Humidity: 75%   Direction: 360°N
Pressure: 29.61"   Gusts: 23mph
Location:  41.6375°N, 72.0613°W
Report Text: KIJD 231952Z AUTO 36012G20KT 10SM OVC020 13/09 A2961 RMK AO2 SLP027 T01330089
Loading
Personal Weather Stations






























Interactive Weather Map
Tropical Storm Tracking
New forecast layout! Learn more

10-Day Weather Forecast

Advertisements
Track Severe Weather on mobile